sensor_id;sensor_type;location;lat;lon;timestamp;P1;durP1;ratioP1;P2;durP2;ratioP2
11439;SDS011;5776;51.814;4.510;2023-06-01T00:02:03;8.30;;;3.95;;
11439;SDS011;5776;51.814;4.510;2023-06-01T00:04:29;5.93;;;3.28;;
11439;SDS011;5776;51.814;4.510;2023-06-01T00:06:55;6.97;;;3.63;;
11439;SDS011;5776;51.814;4.510;2023-06-01T00:09:21;6.90;;;4.15;;
11439;SDS011;5776;51.814;4.510;2023-06-01T00:11:47;6.60;;;3.90;;
11439;SDS011;5776;51.814;4.510;2023-06-01T00:14:13;6.85;;;4.53;;
11439;SDS011;5776;51.814;4.510;2023-06-01T00:16:39;7.10;;;4.07;;
11439;SDS011;5776;51.814;4.510;2023-06-01T00:19:05;7.75;;;4.05;;
11439;SDS011;5776;51.814;4.510;2023-06-01T00:21:32;7.20;;;4.22;;
11439;SDS011;5776;51.814;4.510;2023-06-01T00:24:01;8.80;;;4.20;;
11439;SDS011;5776;51.814;4.510;2023-06-01T00:26:27;4.68;;;3.03;;
11439;SDS011;5776;51.814;4.510;2023-06-01T00:28:55;9.20;;;5.07;;
11439;SDS011;5776;51.814;4.510;2023-06-01T00:31:21;10.20;;;4.70;;
11439;SDS011;5776;51.814;4.510;2023-06-01T00:33:47;7.78;;;4.07;;
11439;SDS011;5776;51.814;4.510;2023-06-01T00:36:13;9.30;;;4.68;;
11439;SDS011;5776;51.814;4.510;2023-06-01T00:38:39;5.32;;;3.88;;
11439;SDS011;5776;51.814;4.510;2023-06-01T00:41:05;7.97;;;4.20;;
11439;SDS011;5776;51.814;4.510;2023-06-01T00:43:31;8.15;;;4.60;;
11439;SDS011;5776;51.814;4.510;2023-06-01T00:45:57;9.20;;;4.50;;
11439;SDS011;5776;51.814;4.510;2023-06-01T00:48:22;7.57;;;4.33;;
11439;SDS011;5776;51.814;4.510;2023-06-01T00:50:49;7.77;;;4.13;;
11439;SDS011;5776;51.814;4.510;2023-06-01T00:53:18;7.80;;;3.97;;
11439;SDS011;5776;51.814;4.510;2023-06-01T00:55:46;6.95;;;4.45;;
11439;SDS011;5776;51.814;4.510;2023-06-01T00:58:13;6.45;;;3.63;;
11439;SDS011;5776;51.814;4.510;2023-06-01T01:00:39;7.30;;;3.90;;
11439;SDS011;5776;51.814;4.510;2023-06-01T01:03:08;7.88;;;4.53;;
11439;SDS011;5776;51.814;4.510;2023-06-01T01:05:37;9.23;;;5.03;;
11439;SDS011;5776;51.814;4.510;2023-06-01T01:08:12;7.73;;;4.23;;
11439;SDS011;5776;51.814;4.510;2023-06-01T01:10:50;8.57;;;4.13;;
11439;SDS011;5776;51.814;4.510;2023-06-01T01:13:37;8.00;;;4.35;;
11439;SDS011;5776;51.814;4.510;2023-06-01T01:16:23;6.43;;;4.00;;
11439;SDS011;5776;51.814;4.510;2023-06-01T01:19:03;6.93;;;3.93;;
11439;SDS011;5776;51.814;4.510;2023-06-01T01:21:36;7.20;;;3.53;;
11439;SDS011;5776;51.814;4.510;2023-06-01T01:24:21;7.97;;;4.03;;
11439;SDS011;5776;51.814;4.510;2023-06-01T01:29:51;7.37;;;4.03;;
11439;SDS011;5776;51.814;4.510;2023-06-01T01:32:20;6.33;;;3.63;;
11439;SDS011;5776;51.814;4.510;2023-06-01T01:34:49;7.60;;;3.85;;
11439;SDS011;5776;51.814;4.510;2023-06-01T01:37:15;6.82;;;3.30;;
11439;SDS011;5776;51.814;4.510;2023-06-01T01:39:41;4.97;;;3.23;;
11439;SDS011;5776;51.814;4.510;2023-06-01T01:42:07;7.87;;;3.57;;
11439;SDS011;5776;51.814;4.510;2023-06-01T01:44:33;8.27;;;3.57;;
11439;SDS011;5776;51.814;4.510;2023-06-01T01:47:05;7.07;;;3.47;;
11439;SDS011;5776;51.814;4.510;2023-06-01T01:49:56;7.30;;;3.78;;
11439;SDS011;5776;51.814;4.510;2023-06-01T01:53:01;5.78;;;3.85;;
11439;SDS011;5776;51.814;4.510;2023-06-01T01:55:20;9.17;;;3.67;;
11439;SDS011;5776;51.814;4.510;2023-06-01T01:57:52;5.60;;;3.45;;
11439;SDS011;5776;51.814;4.510;2023-06-01T02:00:21;7.03;;;3.47;;
11439;SDS011;5776;51.814;4.510;2023-06-01T02:02:47;6.67;;;3.43;;
11439;SDS011;5776;51.814;4.510;2023-06-01T02:05:13;8.63;;;3.03;;
11439;SDS011;5776;51.814;4.510;2023-06-01T02:07:39;5.47;;;3.10;;
11439;SDS011;5776;51.814;4.510;2023-06-01T02:10:05;7.77;;;3.57;;
11439;SDS011;5776;51.814;4.510;2023-06-01T02:12:32;4.07;;;2.67;;
11439;SDS011;5776;51.814;4.510;2023-06-01T02:14:57;7.90;;;3.40;;
11439;SDS011;5776;51.814;4.510;2023-06-01T02:17:23;6.13;;;3.37;;
11439;SDS011;5776;51.814;4.510;2023-06-01T02:19:52;4.50;;;3.10;;
11439;SDS011;5776;51.814;4.510;2023-06-01T02:22:18;8.23;;;3.33;;
11439;SDS011;5776;51.814;4.510;2023-06-01T02:24:44;6.83;;;3.43;;
11439;SDS011;5776;51.814;4.510;2023-06-01T02:27:10;5.03;;;3.30;;
11439;SDS011;5776;51.814;4.510;2023-06-01T02:29:36;5.77;;;3.77;;
11439;SDS011;5776;51.814;4.510;2023-06-01T02:32:02;8.40;;;3.83;;
11439;SDS011;5776;51.814;4.510;2023-06-01T02:34:28;8.67;;;4.13;;
11439;SDS011;5776;51.814;4.510;2023-06-01T02:36:54;6.73;;;3.67;;
11439;SDS011;5776;51.814;4.510;2023-06-01T02:39:23;5.80;;;3.53;;
11439;SDS011;5776;51.814;4.510;2023-06-01T02:41:49;8.30;;;3.93;;
11439;SDS011;5776;51.814;4.510;2023-06-01T02:44:15;11.97;;;3.37;;
11439;SDS011;5776;51.814;4.510;2023-06-01T02:46:41;7.07;;;3.57;;
11439;SDS011;5776;51.814;4.510;2023-06-01T02:49:07;7.00;;;3.57;;
11439;SDS011;5776;51.814;4.510;2023-06-01T02:51:33;5.87;;;3.47;;
11439;SDS011;5776;51.814;4.510;2023-06-01T02:53:59;6.60;;;3.90;;
11439;SDS011;5776;51.814;4.510;2023-06-01T02:56:26;8.33;;;3.17;;
11439;SDS011;5776;51.814;4.510;2023-06-01T02:58:52;5.13;;;3.50;;
11439;SDS011;5776;51.814;4.510;2023-06-01T03:01:18;6.23;;;3.27;;
11439;SDS011;5776;51.814;4.510;2023-06-01T03:03:46;5.40;;;3.53;;
11439;SDS011;5776;51.814;4.510;2023-06-01T03:06:12;6.60;;;3.53;;
11439;SDS011;5776;51.814;4.510;2023-06-01T03:08:38;7.07;;;4.10;;
11439;SDS011;5776;51.814;4.510;2023-06-01T03:11:04;10.83;;;3.97;;
11439;SDS011;5776;51.814;4.510;2023-06-01T03:13:30;7.47;;;3.47;;
11439;SDS011;5776;51.814;4.510;2023-06-01T03:15:56;9.63;;;4.43;;
11439;SDS011;5776;51.814;4.510;2023-06-01T03:18:22;6.40;;;3.20;;
11439;SDS011;5776;51.814;4.510;2023-06-01T03:20:48;7.60;;;3.60;;
11439;SDS011;5776;51.814;4.510;2023-06-01T03:23:14;6.23;;;3.57;;
11439;SDS011;5776;51.814;4.510;2023-06-01T03:25:40;9.57;;;3.87;;
11439;SDS011;5776;51.814;4.510;2023-06-01T03:28:06;5.50;;;3.23;;
11439;SDS011;5776;51.814;4.510;2023-06-01T03:30:32;9.95;;;4.07;;
11439;SDS011;5776;51.814;4.510;2023-06-01T03:32:58;7.47;;;3.97;;
11439;SDS011;5776;51.814;4.510;2023-06-01T03:35:25;6.53;;;3.40;;
11439;SDS011;5776;51.814;4.510;2023-06-01T03:37:51;9.27;;;3.90;;
11439;SDS011;5776;51.814;4.510;2023-06-01T03:40:17;11.50;;;4.13;;
11439;SDS011;5776;51.814;4.510;2023-06-01T03:42:44;8.30;;;3.77;;
11439;SDS011;5776;51.814;4.510;2023-06-01T03:45:11;11.17;;;4.00;;
11439;SDS011;5776;51.814;4.510;2023-06-01T03:47:38;7.50;;;3.70;;
11439;SDS011;5776;51.814;4.510;2023-06-01T03:50:06;8.20;;;3.97;;
11439;SDS011;5776;51.814;4.510;2023-06-01T03:52:34;7.33;;;2.50;;
11439;SDS011;5776;51.814;4.510;2023-06-01T03:55:02;5.63;;;3.43;;
11439;SDS011;5776;51.814;4.510;2023-06-01T03:57:30;9.20;;;4.30;;
11439;SDS011;5776;51.814;4.510;2023-06-01T03:59:56;6.27;;;2.97;;
11439;SDS011;5776;51.814;4.510;2023-06-01T04:02:22;8.17;;;4.10;;
11439;SDS011;5776;51.814;4.510;2023-06-01T04:04:48;6.83;;;3.50;;
11439;SDS011;5776;51.814;4.510;2023-06-01T04:07:14;8.80;;;3.73;;
11439;SDS011;5776;51.814;4.510;2023-06-01T04:09:44;15.63;;;3.63;;
11439;SDS011;5776;51.814;4.510;2023-06-01T04:12:12;6.40;;;3.37;;
11439;SDS011;5776;51.814;4.510;2023-06-01T04:14:39;7.07;;;3.87;;
11439;SDS011;5776;51.814;4.510;2023-06-01T04:17:05;6.07;;;4.00;;
11439;SDS011;5776;51.814;4.510;2023-06-01T04:19:32;13.03;;;4.10;;
11439;SDS011;5776;51.814;4.510;2023-06-01T04:21:59;8.60;;;4.23;;
11439;SDS011;5776;51.814;4.510;2023-06-01T04:24:25;6.80;;;3.40;;
11439;SDS011;5776;51.814;4.510;2023-06-01T04:26:51;9.03;;;3.17;;
11439;SDS011;5776;51.814;4.510;2023-06-01T04:29:17;9.33;;;4.20;;
11439;SDS011;5776;51.814;4.510;2023-06-01T04:31:45;8.87;;;3.47;;
11439;SDS011;5776;51.814;4.510;2023-06-01T04:34:11;7.33;;;3.63;;
11439;SDS011;5776;51.814;4.510;2023-06-01T04:36:37;6.50;;;3.30;;
11439;SDS011;5776;51.814;4.510;2023-06-01T04:39:06;6.87;;;2.83;;
11439;SDS011;5776;51.814;4.510;2023-06-01T04:41:33;5.90;;;3.00;;
11439;SDS011;5776;51.814;4.510;2023-06-01T04:44:01;7.73;;;3.20;;
11439;SDS011;5776;51.814;4.510;2023-06-01T04:46:31;7.90;;;3.50;;
11439;SDS011;5776;51.814;4.510;2023-06-01T04:48:57;6.20;;;3.23;;
11439;SDS011;5776;51.814;4.510;2023-06-01T04:51:25;7.57;;;3.33;;
11439;SDS011;5776;51.814;4.510;2023-06-01T04:53:52;5.27;;;3.03;;
11439;SDS011;5776;51.814;4.510;2023-06-01T04:56:20;7.93;;;3.30;;
11439;SDS011;5776;51.814;4.510;2023-06-01T04:58:52;7.60;;;3.23;;
11439;SDS011;5776;51.814;4.510;2023-06-01T05:01:19;8.03;;;3.73;;
11439;SDS011;5776;51.814;4.510;2023-06-01T05:03:51;6.50;;;2.97;;
11439;SDS011;5776;51.814;4.510;2023-06-01T05:06:19;7.93;;;3.40;;
11439;SDS011;5776;51.814;4.510;2023-06-01T05:08:46;5.17;;;2.43;;
11439;SDS011;5776;51.814;4.510;2023-06-01T05:11:13;10.40;;;3.70;;
11439;SDS011;5776;51.814;4.510;2023-06-01T05:13:39;7.30;;;2.97;;
11439;SDS011;5776;51.814;4.510;2023-06-01T05:16:07;10.43;;;3.63;;
11439;SDS011;5776;51.814;4.510;2023-06-01T05:18:33;6.23;;;3.07;;
11439;SDS011;5776;51.814;4.510;2023-06-01T05:21:00;6.10;;;3.30;;
11439;SDS011;5776;51.814;4.510;2023-06-01T05:23:26;7.07;;;2.93;;
11439;SDS011;5776;51.814;4.510;2023-06-01T05:25:53;6.60;;;3.10;;
11439;SDS011;5776;51.814;4.510;2023-06-01T05:28:31;10.93;;;3.80;;
11439;SDS011;5776;51.814;4.510;2023-06-01T05:30:58;6.83;;;3.57;;
11439;SDS011;5776;51.814;4.510;2023-06-01T05:33:24;6.60;;;3.77;;
11439;SDS011;5776;51.814;4.510;2023-06-01T05:35:50;7.13;;;3.73;;
11439;SDS011;5776;51.814;4.510;2023-06-01T05:38:15;5.73;;;2.80;;
11439;SDS011;5776;51.814;4.510;2023-06-01T05:40:41;7.37;;;3.50;;
11439;SDS011;5776;51.814;4.510;2023-06-01T05:43:07;5.97;;;2.73;;
11439;SDS011;5776;51.814;4.510;2023-06-01T05:45:33;8.43;;;3.07;;
11439;SDS011;5776;51.814;4.510;2023-06-01T05:47:59;8.77;;;3.50;;
11439;SDS011;5776;51.814;4.510;2023-06-01T05:50:25;4.43;;;2.60;;
11439;SDS011;5776;51.814;4.510;2023-06-01T05:52:51;8.57;;;3.60;;
11439;SDS011;5776;51.814;4.510;2023-06-01T05:55:17;9.87;;;4.00;;
11439;SDS011;5776;51.814;4.510;2023-06-01T05:57:43;9.57;;;3.80;;
11439;SDS011;5776;51.814;4.510;2023-06-01T06:00:09;6.80;;;4.50;;
11439;SDS011;5776;51.814;4.510;2023-06-01T06:02:39;8.20;;;3.83;;
11439;SDS011;5776;51.814;4.510;2023-06-01T06:05:07;8.13;;;4.07;;
11439;SDS011;5776;51.814;4.510;2023-06-01T06:07:35;11.63;;;3.93;;
11439;SDS011;5776;51.814;4.510;2023-06-01T06:10:01;4.80;;;3.60;;
11439;SDS011;5776;51.814;4.510;2023-06-01T06:12:27;10.40;;;3.87;;
11439;SDS011;5776;51.814;4.510;2023-06-01T06:14:53;9.20;;;4.07;;
11439;SDS011;5776;51.814;4.510;2023-06-01T06:17:19;6.63;;;3.43;;
11439;SDS011;5776;51.814;4.510;2023-06-01T06:19:45;5.13;;;3.07;;
11439;SDS011;5776;51.814;4.510;2023-06-01T06:22:13;6.80;;;3.50;;
11439;SDS011;5776;51.814;4.510;2023-06-01T06:24:39;9.53;;;3.80;;
11439;SDS011;5776;51.814;4.510;2023-06-01T06:27:05;9.43;;;3.87;;
11439;SDS011;5776;51.814;4.510;2023-06-01T06:29:32;9.03;;;4.40;;
11439;SDS011;5776;51.814;4.510;2023-06-01T06:31:58;8.50;;;4.07;;
11439;SDS011;5776;51.814;4.510;2023-06-01T06:34:23;9.17;;;4.57;;
11439;SDS011;5776;51.814;4.510;2023-06-01T06:36:49;10.30;;;4.27;;
11439;SDS011;5776;51.814;4.510;2023-06-01T06:39:19;8.07;;;3.30;;
11439;SDS011;5776;51.814;4.510;2023-06-01T06:41:46;9.57;;;4.60;;
11439;SDS011;5776;51.814;4.510;2023-06-01T06:44:12;7.20;;;3.70;;
11439;SDS011;5776;51.814;4.510;2023-06-01T06:46:38;11.20;;;4.20;;
11439;SDS011;5776;51.814;4.510;2023-06-01T06:49:04;10.57;;;3.70;;
11439;SDS011;5776;51.814;4.510;2023-06-01T06:51:31;6.13;;;3.53;;
11439;SDS011;5776;51.814;4.510;2023-06-01T06:53:57;6.53;;;3.73;;
11439;SDS011;5776;51.814;4.510;2023-06-01T06:56:23;8.70;;;4.03;;
11439;SDS011;5776;51.814;4.510;2023-06-01T06:58:49;8.43;;;3.13;;
11439;SDS011;5776;51.814;4.510;2023-06-01T07:01:15;4.90;;;3.03;;
11439;SDS011;5776;51.814;4.510;2023-06-01T07:03:41;10.50;;;4.00;;
11439;SDS011;5776;51.814;4.510;2023-06-01T07:06:07;6.93;;;3.63;;
11439;SDS011;5776;51.814;4.510;2023-06-01T07:08:33;9.23;;;4.23;;
11439;SDS011;5776;51.814;4.510;2023-06-01T07:11:00;7.47;;;3.40;;
11439;SDS011;5776;51.814;4.510;2023-06-01T07:13:26;9.33;;;4.93;;
11439;SDS011;5776;51.814;4.510;2023-06-01T07:15:55;9.87;;;4.70;;
11439;SDS011;5776;51.814;4.510;2023-06-01T07:18:21;8.73;;;4.13;;
11439;SDS011;5776;51.814;4.510;2023-06-01T07:20:47;10.50;;;4.17;;
11439;SDS011;5776;51.814;4.510;2023-06-01T07:23:12;9.40;;;5.00;;
11439;SDS011;5776;51.814;4.510;2023-06-01T07:25:38;9.37;;;4.30;;
11439;SDS011;5776;51.814;4.510;2023-06-01T07:28:04;12.90;;;4.10;;
11439;SDS011;5776;51.814;4.510;2023-06-01T07:30:33;8.60;;;3.50;;
11439;SDS011;5776;51.814;4.510;2023-06-01T07:32:59;8.63;;;4.37;;
11439;SDS011;5776;51.814;4.510;2023-06-01T07:35:27;8.53;;;3.27;;
11439;SDS011;5776;51.814;4.510;2023-06-01T07:37:53;5.03;;;3.57;;
11439;SDS011;5776;51.814;4.510;2023-06-01T07:40:19;7.43;;;3.90;;
11439;SDS011;5776;51.814;4.510;2023-06-01T07:42:45;9.73;;;4.23;;
11439;SDS011;5776;51.814;4.510;2023-06-01T07:45:10;10.17;;;3.70;;
11439;SDS011;5776;51.814;4.510;2023-06-01T07:47:36;9.37;;;3.60;;
11439;SDS011;5776;51.814;4.510;2023-06-01T07:50:03;7.30;;;4.37;;
11439;SDS011;5776;51.814;4.510;2023-06-01T07:52:28;9.80;;;4.20;;
11439;SDS011;5776;51.814;4.510;2023-06-01T07:54:54;7.03;;;3.30;;
11439;SDS011;5776;51.814;4.510;2023-06-01T07:57:21;7.97;;;3.57;;
11439;SDS011;5776;51.814;4.510;2023-06-01T07:59:47;7.13;;;3.57;;
11439;SDS011;5776;51.814;4.510;2023-06-01T08:02:13;5.60;;;3.40;;
11439;SDS011;5776;51.814;4.510;2023-06-01T08:04:39;8.37;;;3.30;;
11439;SDS011;5776;51.814;4.510;2023-06-01T08:07:05;5.97;;;2.87;;
11439;SDS011;5776;51.814;4.510;2023-06-01T08:09:32;5.90;;;3.37;;
11439;SDS011;5776;51.814;4.510;2023-06-01T08:11:58;5.50;;;2.90;;
11439;SDS011;5776;51.814;4.510;2023-06-01T08:14:24;7.43;;;3.13;;
11439;SDS011;5776;51.814;4.510;2023-06-01T08:16:50;8.40;;;4.00;;
11439;SDS011;5776;51.814;4.510;2023-06-01T08:19:19;6.87;;;3.50;;
11439;SDS011;5776;51.814;4.510;2023-06-01T08:21:45;6.57;;;3.00;;
11439;SDS011;5776;51.814;4.510;2023-06-01T08:24:11;7.07;;;3.53;;
11439;SDS011;5776;51.814;4.510;2023-06-01T08:26:40;7.33;;;3.77;;
11439;SDS011;5776;51.814;4.510;2023-06-01T08:29:06;8.97;;;3.50;;
11439;SDS011;5776;51.814;4.510;2023-06-01T08:31:32;9.13;;;3.73;;
11439;SDS011;5776;51.814;4.510;2023-06-01T08:33:58;7.90;;;3.70;;
11439;SDS011;5776;51.814;4.510;2023-06-01T08:36:23;7.27;;;4.33;;
11439;SDS011;5776;51.814;4.510;2023-06-01T08:38:49;8.13;;;4.47;;
11439;SDS011;5776;51.814;4.510;2023-06-01T08:44:09;10.07;;;4.40;;
11439;SDS011;5776;51.814;4.510;2023-06-01T08:46:37;6.23;;;3.03;;
11439;SDS011;5776;51.814;4.510;2023-06-01T08:49:07;9.90;;;4.67;;
11439;SDS011;5776;51.814;4.510;2023-06-01T08:51:36;5.53;;;3.30;;
11439;SDS011;5776;51.814;4.510;2023-06-01T08:54:03;7.40;;;3.53;;
11439;SDS011;5776;51.814;4.510;2023-06-01T08:56:34;8.67;;;3.70;;
11439;SDS011;5776;51.814;4.510;2023-06-01T08:59:00;4.70;;;3.20;;
11439;SDS011;5776;51.814;4.510;2023-06-01T09:01:27;7.37;;;3.30;;
11439;SDS011;5776;51.814;4.510;2023-06-01T09:03:53;7.60;;;3.20;;
11439;SDS011;5776;51.814;4.510;2023-06-01T09:06:20;5.90;;;2.57;;
11439;SDS011;5776;51.814;4.510;2023-06-01T09:08:47;6.83;;;2.73;;
11439;SDS011;5776;51.814;4.510;2023-06-01T09:11:13;8.10;;;3.70;;
11439;SDS011;5776;51.814;4.510;2023-06-01T09:13:39;9.37;;;4.30;;
11439;SDS011;5776;51.814;4.510;2023-06-01T09:16:06;11.03;;;3.47;;
11439;SDS011;5776;51.814;4.510;2023-06-01T09:18:32;8.10;;;5.10;;
11439;SDS011;5776;51.814;4.510;2023-06-01T09:21:20;8.83;;;4.50;;
11439;SDS011;5776;51.814;4.510;2023-06-01T09:23:45;6.73;;;3.90;;
11439;SDS011;5776;51.814;4.510;2023-06-01T09:26:11;8.00;;;4.50;;
11439;SDS011;5776;51.814;4.510;2023-06-01T09:28:54;9.83;;;4.33;;
11439;SDS011;5776;51.814;4.510;2023-06-01T09:31:34;11.87;;;4.53;;
11439;SDS011;5776;51.814;4.510;2023-06-01T09:34:01;5.97;;;4.00;;
11439;SDS011;5776;51.814;4.510;2023-06-01T09:36:27;10.03;;;4.67;;
11439;SDS011;5776;51.814;4.510;2023-06-01T09:39:06;7.68;;;4.22;;
11439;SDS011;5776;51.814;4.510;2023-06-01T09:44:12;7.05;;;3.80;;
11439;SDS011;5776;51.814;4.510;2023-06-01T09:46:49;7.17;;;4.57;;
11439;SDS011;5776;51.814;4.510;2023-06-01T09:49:22;8.07;;;3.90;;
11439;SDS011;5776;51.814;4.510;2023-06-01T09:51:51;8.53;;;4.63;;
11439;SDS011;5776;51.814;4.510;2023-06-01T09:54:27;7.20;;;4.13;;
11439;SDS011;5776;51.814;4.510;2023-06-01T09:56:55;11.30;;;4.80;;
11439;SDS011;5776;51.814;4.510;2023-06-01T09:59:21;4.33;;;2.80;;
11439;SDS011;5776;51.814;4.510;2023-06-01T10:01:49;5.20;;;3.50;;
11439;SDS011;5776;51.814;4.510;2023-06-01T10:04:20;7.40;;;2.88;;
11439;SDS011;5776;51.814;4.510;2023-06-01T10:06:51;8.73;;;3.13;;
11439;SDS011;5776;51.814;4.510;2023-06-01T10:09:20;6.83;;;3.60;;
11439;SDS011;5776;51.814;4.510;2023-06-01T10:11:47;8.67;;;3.47;;
11439;SDS011;5776;51.814;4.510;2023-06-01T10:14:15;9.45;;;3.78;;
11439;SDS011;5776;51.814;4.510;2023-06-01T10:16:42;6.60;;;3.53;;
11439;SDS011;5776;51.814;4.510;2023-06-01T10:19:08;7.70;;;4.25;;
11439;SDS011;5776;51.814;4.510;2023-06-01T10:21:36;8.43;;;3.20;;
11439;SDS011;5776;51.814;4.510;2023-06-01T10:24:06;10.32;;;4.18;;
11439;SDS011;5776;51.814;4.510;2023-06-01T10:26:33;8.43;;;2.90;;
11439;SDS011;5776;51.814;4.510;2023-06-01T10:29:05;5.60;;;3.73;;
11439;SDS011;5776;51.814;4.510;2023-06-01T10:34:11;4.68;;;2.75;;
11439;SDS011;5776;51.814;4.510;2023-06-01T10:39:25;10.15;;;3.97;;
11439;SDS011;5776;51.814;4.510;2023-06-01T10:41:55;7.32;;;3.65;;
11439;SDS011;5776;51.814;4.510;2023-06-01T10:55:41;10.43;;;5.67;;
11439;SDS011;5776;51.814;4.510;2023-06-01T10:57:42;7.85;;;5.05;;
11439;SDS011;5776;51.814;4.510;2023-06-01T11:00:16;8.60;;;5.97;;
11439;SDS011;5776;51.814;4.510;2023-06-01T11:05:58;11.35;;;5.10;;
11439;SDS011;5776;51.814;4.510;2023-06-01T11:13:20;8.20;;;4.65;;
11439;SDS011;5776;51.814;4.510;2023-06-01T11:18:48;10.38;;;5.22;;
11439;SDS011;5776;51.814;4.510;2023-06-01T11:23:51;7.75;;;5.72;;
11439;SDS011;5776;51.814;4.510;2023-06-01T11:26:19;11.70;;;6.10;;
11439;SDS011;5776;51.814;4.510;2023-06-01T11:28:47;14.88;;;5.05;;
11439;SDS011;5776;51.814;4.510;2023-06-01T11:31:14;9.05;;;5.07;;
11439;SDS011;5776;51.814;4.510;2023-06-01T11:33:45;8.68;;;5.20;;
11439;SDS011;5776;51.814;4.510;2023-06-01T11:36:17;11.00;;;5.73;;
11439;SDS011;5776;51.814;4.510;2023-06-01T11:38:46;10.80;;;5.82;;
11439;SDS011;5776;51.814;4.510;2023-06-01T11:41:11;8.15;;;4.60;;
11439;SDS011;5776;51.814;4.510;2023-06-01T11:43:37;7.60;;;4.63;;
11439;SDS011;5776;51.814;4.510;2023-06-01T11:46:04;6.93;;;3.88;;
11439;SDS011;5776;51.814;4.510;2023-06-01T11:48:32;8.68;;;4.40;;
11439;SDS011;5776;51.814;4.510;2023-06-01T11:51:02;7.25;;;3.58;;
11439;SDS011;5776;51.814;4.510;2023-06-01T11:53:30;8.40;;;4.05;;
11439;SDS011;5776;51.814;4.510;2023-06-01T11:55:57;6.70;;;4.70;;
11439;SDS011;5776;51.814;4.510;2023-06-01T12:00:51;6.80;;;3.90;;
11439;SDS011;5776;51.814;4.510;2023-06-01T12:03:20;9.25;;;4.25;;
11439;SDS011;5776;51.814;4.510;2023-06-01T12:05:47;7.18;;;3.60;;
11439;SDS011;5776;51.814;4.510;2023-06-01T12:08:14;5.80;;;3.60;;
11439;SDS011;5776;51.814;4.510;2023-06-01T12:10:44;12.18;;;4.95;;
11439;SDS011;5776;51.814;4.510;2023-06-01T12:13:11;7.20;;;4.28;;
11439;SDS011;5776;51.814;4.510;2023-06-01T12:15:38;6.93;;;3.58;;
11439;SDS011;5776;51.814;4.510;2023-06-01T12:18:04;9.02;;;4.35;;
11439;SDS011;5776;51.814;4.510;2023-06-01T12:20:31;8.75;;;4.57;;
11439;SDS011;5776;51.814;4.510;2023-06-01T12:25:35;6.00;;;3.90;;
11439;SDS011;5776;51.814;4.510;2023-06-01T12:28:02;8.30;;;4.18;;
11439;SDS011;5776;51.814;4.510;2023-06-01T12:30:28;8.35;;;4.13;;
11439;SDS011;5776;51.814;4.510;2023-06-01T12:32:54;10.52;;;4.22;;
11439;SDS011;5776;51.814;4.510;2023-06-01T12:35:20;12.90;;;4.60;;
11439;SDS011;5776;51.814;4.510;2023-06-01T12:38:04;8.15;;;3.88;;
11439;SDS011;5776;51.814;4.510;2023-06-01T12:40:32;9.13;;;4.43;;
11439;SDS011;5776;51.814;4.510;2023-06-01T12:43:02;5.18;;;2.95;;
11439;SDS011;5776;51.814;4.510;2023-06-01T12:45:35;7.13;;;3.63;;
11439;SDS011;5776;51.814;4.510;2023-06-01T12:48:02;9.73;;;4.90;;
11439;SDS011;5776;51.814;4.510;2023-06-01T12:50:28;10.68;;;4.75;;
11439;SDS011;5776;51.814;4.510;2023-06-01T12:52:54;7.30;;;3.95;;
11439;SDS011;5776;51.814;4.510;2023-06-01T12:55:20;9.23;;;3.80;;
11439;SDS011;5776;51.814;4.510;2023-06-01T12:57:56;6.30;;;3.03;;
11439;SDS011;5776;51.814;4.510;2023-06-01T13:00:22;5.43;;;2.67;;
11439;SDS011;5776;51.814;4.510;2023-06-01T13:02:48;7.43;;;4.15;;
11439;SDS011;5776;51.814;4.510;2023-06-01T13:05:16;8.10;;;4.40;;
11439;SDS011;5776;51.814;4.510;2023-06-01T13:07:42;11.07;;;4.40;;
11439;SDS011;5776;51.814;4.510;2023-06-01T13:10:12;6.05;;;2.70;;
11439;SDS011;5776;51.814;4.510;2023-06-01T13:12:39;9.05;;;3.55;;
11439;SDS011;5776;51.814;4.510;2023-06-01T13:15:08;6.85;;;3.47;;
11439;SDS011;5776;51.814;4.510;2023-06-01T13:17:34;6.55;;;3.22;;
11439;SDS011;5776;51.814;4.510;2023-06-01T13:20:01;5.13;;;3.05;;
11439;SDS011;5776;51.814;4.510;2023-06-01T13:22:28;5.00;;;3.22;;
11439;SDS011;5776;51.814;4.510;2023-06-01T13:24:53;7.53;;;3.22;;
11439;SDS011;5776;51.814;4.510;2023-06-01T13:27:19;8.00;;;2.83;;
11439;SDS011;5776;51.814;4.510;2023-06-01T13:29:45;8.00;;;3.05;;
11439;SDS011;5776;51.814;4.510;2023-06-01T13:32:11;6.63;;;3.10;;
11439;SDS011;5776;51.814;4.510;2023-06-01T13:34:37;5.60;;;2.30;;
11439;SDS011;5776;51.814;4.510;2023-06-01T13:37:04;6.28;;;2.90;;
11439;SDS011;5776;51.814;4.510;2023-06-01T13:39:30;5.60;;;2.47;;
11439;SDS011;5776;51.814;4.510;2023-06-01T13:41:56;3.80;;;2.05;;
11439;SDS011;5776;51.814;4.510;2023-06-01T13:44:22;3.75;;;2.30;;
11439;SDS011;5776;51.814;4.510;2023-06-01T13:46:48;6.15;;;2.58;;
11439;SDS011;5776;51.814;4.510;2023-06-01T13:49:15;4.13;;;2.45;;
11439;SDS011;5776;51.814;4.510;2023-06-01T13:51:41;3.45;;;2.60;;
11439;SDS011;5776;51.814;4.510;2023-06-01T13:54:07;5.20;;;2.75;;
11439;SDS011;5776;51.814;4.510;2023-06-01T13:56:33;6.07;;;3.00;;
11439;SDS011;5776;51.814;4.510;2023-06-01T13:58:59;6.97;;;2.70;;
11439;SDS011;5776;51.814;4.510;2023-06-01T14:01:25;9.18;;;3.03;;
11439;SDS011;5776;51.814;4.510;2023-06-01T14:03:51;4.30;;;2.17;;
11439;SDS011;5776;51.814;4.510;2023-06-01T14:06:17;7.60;;;3.50;;
11439;SDS011;5776;51.814;4.510;2023-06-01T14:08:43;4.28;;;3.17;;
11439;SDS011;5776;51.814;4.510;2023-06-01T14:11:09;5.43;;;3.05;;
11439;SDS011;5776;51.814;4.510;2023-06-01T14:13:34;4.72;;;2.70;;
11439;SDS011;5776;51.814;4.510;2023-06-01T14:16:00;6.88;;;3.22;;
11439;SDS011;5776;51.814;4.510;2023-06-01T14:18:26;6.85;;;2.20;;
11439;SDS011;5776;51.814;4.510;2023-06-01T14:20:52;5.78;;;2.72;;
11439;SDS011;5776;51.814;4.510;2023-06-01T14:23:18;4.65;;;2.60;;
11439;SDS011;5776;51.814;4.510;2023-06-01T14:25:44;4.25;;;2.67;;
11439;SDS011;5776;51.814;4.510;2023-06-01T14:28:10;3.78;;;2.40;;
11439;SDS011;5776;51.814;4.510;2023-06-01T14:30:36;4.18;;;2.50;;
11439;SDS011;5776;51.814;4.510;2023-06-01T14:33:02;4.55;;;2.55;;
11439;SDS011;5776;51.814;4.510;2023-06-01T14:35:28;5.65;;;2.50;;
11439;SDS011;5776;51.814;4.510;2023-06-01T14:37:54;3.50;;;2.40;;
11439;SDS011;5776;51.814;4.510;2023-06-01T14:40:21;5.53;;;2.42;;
11439;SDS011;5776;51.814;4.510;2023-06-01T14:42:46;8.57;;;2.35;;
11439;SDS011;5776;51.814;4.510;2023-06-01T14:45:12;4.40;;;1.90;;
11439;SDS011;5776;51.814;4.510;2023-06-01T14:47:39;3.35;;;2.20;;
11439;SDS011;5776;51.814;4.510;2023-06-01T14:50:07;4.35;;;1.85;;
11439;SDS011;5776;51.814;4.510;2023-06-01T14:52:33;2.95;;;1.92;;
11439;SDS011;5776;51.814;4.510;2023-06-01T14:54:59;2.78;;;1.80;;
11439;SDS011;5776;51.814;4.510;2023-06-01T14:57:25;3.72;;;1.70;;
11439;SDS011;5776;51.814;4.510;2023-06-01T14:59:51;3.60;;;1.70;;
11439;SDS011;5776;51.814;4.510;2023-06-01T15:02:17;3.65;;;1.60;;
11439;SDS011;5776;51.814;4.510;2023-06-01T15:04:43;5.43;;;2.13;;
11439;SDS011;5776;51.814;4.510;2023-06-01T15:07:10;5.22;;;1.88;;
11439;SDS011;5776;51.814;4.510;2023-06-01T15:09:36;5.88;;;1.60;;
11439;SDS011;5776;51.814;4.510;2023-06-01T15:12:02;3.00;;;1.90;;
11439;SDS011;5776;51.814;4.510;2023-06-01T15:14:28;4.47;;;2.17;;
11439;SDS011;5776;51.814;4.510;2023-06-01T15:16:54;5.65;;;1.90;;
11439;SDS011;5776;51.814;4.510;2023-06-01T15:19:20;2.65;;;1.80;;
11439;SDS011;5776;51.814;4.510;2023-06-01T15:21:46;6.90;;;2.15;;
11439;SDS011;5776;51.814;4.510;2023-06-01T15:24:12;3.70;;;2.15;;
11439;SDS011;5776;51.814;4.510;2023-06-01T15:26:38;5.13;;;1.98;;
11439;SDS011;5776;51.814;4.510;2023-06-01T15:29:04;4.75;;;2.45;;
11439;SDS011;5776;51.814;4.510;2023-06-01T15:31:30;4.45;;;2.20;;
11439;SDS011;5776;51.814;4.510;2023-06-01T15:33:56;3.10;;;2.47;;
11439;SDS011;5776;51.814;4.510;2023-06-01T15:36:21;3.30;;;2.00;;
11439;SDS011;5776;51.814;4.510;2023-06-01T15:38:47;5.57;;;2.40;;
11439;SDS011;5776;51.814;4.510;2023-06-01T15:41:13;3.85;;;2.55;;
11439;SDS011;5776;51.814;4.510;2023-06-01T15:43:39;3.30;;;2.20;;
11439;SDS011;5776;51.814;4.510;2023-06-01T15:46:05;2.63;;;2.03;;